| time (UTC) | temp F | wind direction | speed knots | gust knots | rain 1hr in | rain 24hr in | rain mn in | humidity % | barometer mb |
| 20260505100603 | 46 | 96 | 0.0 | 3.5 | 0.00 | 0.00 | 0.00 | 82 | 1010.8 |
| 20260505100003 | 46 | 0 | 0.0 | 0.0 | 0.00 | 0.00 | 0.00 | 82 | 1010.8 |
| 20260505095403 | 46 | 0 | 0.0 | 0.0 | 0.00 | 0.00 | 0.00 | 82 | 1010.7 |
| 20260505094803 | 47 | 0 | 0.0 | 0.0 | 0.00 | 0.00 | 0.00 | 82 | 1010.8 |
| 20260505094203 | 47 | 0 | 0.0 | 0.0 | 0.00 | 0.00 | 0.00 | 82 | 1010.6 |
| 20260505093603 | 47 | 0 | 0.0 | 0.0 | 0.00 | 0.00 | 0.00 | 82 | 1010.7 |
| 20260505093003 | 47 | 0 | 0.0 | 0.0 | 0.00 | 0.00 | 0.00 | 81 | 1010.6 |
| 20260505092403 | 48 | 0 | 0.0 | 0.0 | 0.00 | 0.00 | 0.00 | 81 | 1010.6 |
| 20260505091803 | 48 | 0 | 0.0 | 0.0 | 0.00 | 0.00 | 0.00 | 82 | 1010.6 |
| 20260505091204 | 48 | 0 | 0.0 | 0.0 | 0.00 | 0.00 | 0.00 | 81 | 1010.5 |
| 20260505090603 | 48 | 0 | 0.0 | 0.0 | 0.00 | 0.00 | 0.00 | 81 | 1010.6 |
| 20260505090004 | 48 | 0 | 0.0 | 0.0 | 0.00 | 0.00 | 0.00 | 81 | 1010.5 |
| 20260505085403 | 49 | 0 | 0.0 | 0.0 | 0.00 | 0.00 | 0.00 | 81 | 1010.5 |
| 20260505084803 | 49 | 0 | 0.0 | 0.0 | 0.00 | 0.00 | 0.00 | 81 | 1010.6 |
| 20260505084203 | 49 | 83 | 0.0 | 1.7 | 0.00 | 0.00 | 0.00 | 80 | 1010.6 |
| 20260505083603 | 49 | 75 | 0.0 | 2.6 | 0.00 | 0.00 | 0.00 | 80 | 1010.4 |
| 20260505083003 | 50 | 87 | 0.0 | 3.5 | 0.00 | 0.00 | 0.00 | 80 | 1010.6 |
| 20260505082403 | 50 | 88 | 0.9 | 3.5 | 0.00 | 0.00 | 0.00 | 80 | 1010.4 |
| 20260505081804 | 50 | 103 | 0.0 | 1.7 | 0.00 | 0.00 | 0.00 | 80 | 1010.5 |
| 20260505081204 | 50 | 85 | 0.0 | 1.7 | 0.00 | 0.00 | 0.00 | 80 | 1010.5 |
| 20260505080603 | 50 | 82 | 0.0 | 1.7 | 0.00 | 0.00 | 0.00 | 79 | 1010.5 |
| 20260505080004 | 50 | 91 | 0.0 | 2.6 | 0.00 | 0.00 | 0.00 | 79 | 1010.4 |
| 20260505075403 | 50 | 89 | 0.0 | 3.5 | 0.00 | 0.00 | 0.00 | 79 | 1010.5 |
| 20260505074803 | 50 | 86 | 0.9 | 3.5 | 0.00 | 0.00 | 0.00 | 79 | 1010.4 |
| 20260505074203 | 51 | 87 | 0.0 | 3.5 | 0.00 | 0.00 | 0.00 | 79 | 1010.4 |
| 20260505073603 | 51 | 0 | 0.0 | 0.0 | 0.00 | 0.00 | 0.00 | 78 | 1010.3 |
| 20260505073004 | 51 | 0 | 0.0 | 0.0 | 0.00 | 0.00 | 0.00 | 78 | 1010.3 |
| 20260505072403 | 51 | 0 | 0.0 | 0.0 | 0.00 | 0.00 | 0.00 | 78 | 1010.3 |
| 20260505071803 | 51 | 0 | 0.0 | 0.0 | 0.00 | 0.00 | 0.00 | 78 | 1010.3 |
| 20260505071203 | 52 | 0 | 0.0 | 0.0 | 0.00 | 0.00 | 0.00 | 77 | 1010.2 |
| 20260505070603 | 52 | 0 | 0.0 | 0.0 | 0.00 | 0.00 | 0.00 | 77 | 1010.1 |
| 20260505070005 | 52 | 0 | 0.0 | 0.0 | 0.00 | 0.00 | 0.00 | 77 | 1010.1 |
| 20260505065403 | 52 | 85 | 0.0 | 2.6 | 0.00 | 0.00 | 0.00 | 76 | 1010.0 |
| 20260505064803 | 52 | 86 | 0.0 | 2.6 | 0.00 | 0.00 | 0.00 | 76 | 1010.0 |
| 20260505064203 | 53 | 86 | 0.0 | 2.6 | 0.00 | 0.00 | 0.00 | 75 | 1010.1 |
| 20260505063603 | 53 | 89 | 0.0 | 2.6 | 0.00 | 0.00 | 0.00 | 75 | 1010.1 |
| 20260505063004 | 53 | 0 | 0.0 | 0.0 | 0.00 | 0.00 | 0.00 | 75 | 1010.2 |
| 20260505062403 | 54 | 88 | 0.0 | 0.9 | 0.00 | 0.00 | 0.00 | 74 | 1010.1 |
| 20260505061803 | 54 | 86 | 0.0 | 2.6 | 0.00 | 0.00 | 0.00 | 74 | 1010.0 |
| 20260505061203 | 54 | 86 | 0.0 | 2.6 | 0.00 | 0.00 | 0.00 | 74 | 1010.0 |
| 20260505060603 | 54 | 86 | 0.0 | 2.6 | 0.00 | 0.00 | 0.00 | 74 | 1010.0 |
| 20260505060004 | 54 | 0 | 0.0 | 0.0 | 0.00 | 0.00 | 0.00 | 73 | 1010.0 |
| 20260505055403 | 54 | 0 | 0.0 | 0.0 | 0.00 | 0.00 | 0.00 | 73 | 1010.0 |
| 20260505054803 | 55 | 0 | 0.0 | 0.0 | 0.00 | 0.00 | 0.00 | 72 | 1010.0 |
| 20260505054204 | 55 | 0 | 0.0 | 0.0 | 0.00 | 0.00 | 0.00 | 72 | 1009.9 |
| 20260505053603 | 55 | 0 | 0.0 | 0.0 | 0.00 | 0.00 | 0.00 | 71 | 1009.8 |
| 20260505053003 | 56 | 46 | 0.0 | 0.9 | 0.00 | 0.00 | 0.00 | 70 | 1009.8 |
| 20260505052403 | 56 | 62 | 0.0 | 3.5 | 0.00 | 0.00 | 0.00 | 69 | 1009.8 |
| 20260505051803 | 56 | 22 | 0.0 | 1.7 | 0.00 | 0.00 | 0.00 | 70 | 1009.7 |
| 20260505051203 | 56 | 0 | 0.0 | 0.0 | 0.00 | 0.00 | 0.00 | 69 | 1009.6 |
| 20260505050603 | 57 | 0 | 0.0 | 0.0 | 0.00 | 0.00 | 0.00 | 69 | 1009.6 |
| 20260505041203 | 62 | 0 | 0.0 | 0.0 | 0.00 | 0.00 | 0.00 | 61 | 1009.0 |
| 20260505040604 | 62 | 0 | 0.0 | 0.0 | 0.00 | 0.00 | 0.00 | 60 | 1008.9 |
| 20260505040004 | 63 | 0 | 0.0 | 0.0 | 0.00 | 0.00 | 0.00 | 58 | 1008.7 |
| 20260505035403 | 64 | 0 | 0.0 | 0.0 | 0.00 | 0.00 | 0.00 | 57 | 1008.7 |
| 20260505034803 | 64 | 0 | 0.0 | 0.0 | 0.00 | 0.00 | 0.00 | 56 | 1008.6 |
| 20260505034203 | 65 | 0 | 0.0 | 0.0 | 0.00 | 0.00 | 0.00 | 53 | 1008.5 |
| 20260505033604 | 66 | 0 | 0.0 | 0.0 | 0.00 | 0.00 | 0.00 | 53 | 1008.3 |
| 20260505033003 | 67 | 201 | 0.0 | 2.6 | 0.00 | 0.00 | 0.00 | 52 | 1008.3 |
| 20260505032403 | 67 | 183 | 0.0 | 3.5 | 0.00 | 0.00 | 0.00 | 51 | 1008.2 |
| 20260505031803 | 68 | 166 | 0.9 | 6.1 | 0.00 | 0.00 | 0.00 | 48 | 1008.1 |
| 20260505031203 | 69 | 171 | 1.7 | 9.6 | 0.00 | 0.00 | 0.00 | 47 | 1008.1 |
| 20260505030603 | 69 | 171 | 1.7 | 9.6 | 0.00 | 0.00 | 0.00 | 44 | 1007.9 |
| 20260505030004 | 70 | 171 | 2.6 | 9.6 | 0.00 | 0.00 | 0.00 | 45 | 1007.8 |
| 20260505025403 | 70 | 171 | 1.7 | 8.7 | 0.00 | 0.00 | 0.00 | 43 | 1007.7 |
| 20260505024803 | 71 | 174 | 0.9 | 4.3 | 0.00 | 0.00 | 0.00 | 43 | 1007.6 |
| 20260505024203 | 71 | 177 | 0.9 | 5.2 | 0.00 | 0.00 | 0.00 | 42 | 1007.5 |
| 20260505023603 | 72 | 170 | 0.9 | 7.8 | 0.00 | 0.00 | 0.00 | 41 | 1007.6 |
| 20260505023003 | 73 | 179 | 0.9 | 5.2 | 0.00 | 0.00 | 0.00 | 40 | 1007.5 |
| 20260505022403 | 74 | 178 | 1.7 | 7.0 | 0.00 | 0.00 | 0.00 | 39 | 1007.3 |
| 20260505021804 | 74 | 174 | 1.7 | 10.4 | 0.00 | 0.00 | 0.00 | 37 | 1007.3 |
| 20260505021203 | 75 | 176 | 2.6 | 10.4 | 0.00 | 0.00 | 0.00 | 36 | 1007.3 |
| 20260505020603 | 76 | 186 | 1.7 | 8.7 | 0.00 | 0.00 | 0.00 | 36 | 1007.3 |
| 20260505020004 | 77 | 185 | 1.7 | 8.7 | 0.00 | 0.00 | 0.00 | 35 | 1007.1 |
| 20260505015403 | 78 | 193 | 1.7 | 8.7 | 0.00 | 0.00 | 0.00 | 34 | 1007.1 |
| 20260505014803 | 79 | 187 | 1.7 | 8.7 | 0.00 | 0.00 | 0.00 | 33 | 1007.1 |
| 20260505014203 | 79 | 186 | 2.6 | 8.7 | 0.00 | 0.00 | 0.00 | 32 | 1007.0 |
| 20260505013603 | 80 | 186 | 1.7 | 7.8 | 0.00 | 0.00 | 0.00 | 30 | 1007.0 |
| 20260505013003 | 80 | 183 | 1.7 | 8.7 | 0.00 | 0.00 | 0.00 | 31 | 1007.0 |
| 20260505012403 | 81 | 187 | 0.9 | 11.3 | 0.00 | 0.00 | 0.00 | 31 | 1007.1 |
| 20260505011803 | 81 | 193 | 0.9 | 11.3 | 0.00 | 0.00 | 0.00 | 32 | 1007.1 |
| 20260505011203 | 81 | 195 | 2.6 | 9.6 | 0.00 | 0.00 | 0.00 | 32 | 1007.1 |
| 20260505010603 | 81 | 187 | 2.6 | 10.4 | 0.00 | 0.00 | 0.00 | 30 | 1007.2 |
| 20260505010004 | 82 | 181 | 2.6 | 10.4 | 0.00 | 0.00 | 0.00 | 30 | 1007.1 |
| 20260505005403 | 82 | 181 | 1.7 | 7.8 | 0.00 | 0.00 | 0.00 | 30 | 1007.2 |
| 20260505004803 | 82 | 190 | 1.7 | 7.8 | 0.00 | 0.00 | 0.00 | 31 | 1007.2 |
| 20260505004203 | 82 | 199 | 2.6 | 7.0 | 0.00 | 0.00 | 0.00 | 30 | 1007.0 |
| 20260505003603 | 82 | 196 | 2.6 | 11.3 | 0.00 | 0.00 | 0.00 | 30 | 1007.1 |
| 20260505003003 | 82 | 200 | 3.5 | 11.3 | 0.00 | 0.00 | 0.00 | 29 | 1007.1 |
| 20260505002403 | 82 | 210 | 2.6 | 11.3 | 0.00 | 0.00 | 0.00 | 31 | 1007.0 |
| 20260505001803 | 81 | 202 | 2.6 | 9.6 | 0.00 | 0.00 | 0.00 | 32 | 1007.0 |
| 20260505001203 | 80 | 186 | 3.5 | 13.0 | 0.00 | 0.00 | 0.00 | 32 | 1006.9 |
| 20260505000603 | 79 | 183 | 4.3 | 13.0 | 0.00 | 0.00 | 0.00 | 32 | 1007.0 |
| 20260505000003 | 79 | 185 | 4.3 | 12.2 | 0.00 | 0.00 | 0.00 | 31 | 1006.9 |
| 20260504235403 | 79 | 185 | 3.5 | 13.9 | 0.00 | 0.00 | 0.00 | 30 | 1007.0 |
| 20260504234803 | 80 | 184 | 3.5 | 13.9 | 0.00 | 0.00 | 0.00 | 29 | 1007.0 |
| 20260504234203 | 81 | 187 | 3.5 | 13.9 | 0.00 | 0.00 | 0.00 | 28 | 1007.0 |
| 20260504233603 | 82 | 191 | 2.6 | 13.0 | 0.00 | 0.00 | 0.00 | 26 | 1007.0 |
| 20260504233003 | 84 | 198 | 3.5 | 12.2 | 0.00 | 0.00 | 0.00 | 27 | 1006.9 |
| 20260504232403 | 84 | 208 | 3.5 | 12.2 | 0.00 | 0.00 | 0.00 | 29 | 1007.0 |
| 20260504231803 | 84 | 204 | 3.5 | 13.9 | 0.00 | 0.00 | 0.00 | 27 | 1007.0 |
| 20260504231203 | 85 | 189 | 3.5 | 13.9 | 0.00 | 0.00 | 0.00 | 26 | 1007.1 |
| 20260504230603 | 85 | 188 | 1.7 | 12.2 | 0.00 | 0.00 | 0.00 | 26 | 1007.1 |
| 20260504230004 | 86 | 218 | 0.9 | 8.7 | 0.00 | 0.00 | 0.00 | 28 | 1007.2 |
| 20260504225403 | 85 | 192 | 4.3 | 14.8 | 0.00 | 0.00 | 0.00 | 27 | 1007.1 |
| 20260504224803 | 85 | 196 | 4.3 | 14.8 | 0.00 | 0.00 | 0.00 | 28 | 1007.1 |
| 20260504224203 | 86 | 190 | 3.5 | 12.2 | 0.00 | 0.00 | 0.00 | 26 | 1007.2 |
| 20260504223603 | 86 | 187 | 3.5 | 15.6 | 0.00 | 0.00 | 0.00 | 24 | 1007.2 |
| 20260504223003 | 86 | 199 | 3.5 | 15.6 | 0.00 | 0.00 | 0.00 | 29 | 1007.0 |
| 20260504222403 | 86 | 187 | 4.3 | 13.9 | 0.00 | 0.00 | 0.00 | 30 | 1007.3 |
| 20260504221803 | 86 | 193 | 4.3 | 18.2 | 0.00 | 0.00 | 0.00 | 29 | 1007.3 |
| 20260504221203 | 86 | 212 | 2.6 | 12.2 | 0.00 | 0.00 | 0.00 | 30 | 1007.4 |
| 20260504220603 | 86 | 190 | 3.5 | 14.8 | 0.00 | 0.00 | 0.00 | 32 | 1007.5 |
| 20260504220004 | 86 | 187 | 2.6 | 14.8 | 0.00 | 0.00 | 0.00 | 30 | 1007.6 |
| 20260504215403 | 86 | 179 | 2.6 | 16.5 | 0.00 | 0.00 | 0.00 | 28 | 1007.6 |
| 20260504214803 | 86 | 180 | 3.5 | 16.5 | 0.00 | 0.00 | 0.00 | 30 | 1007.7 |
| 20260504214203 | 86 | 184 | 1.7 | 11.3 | 0.00 | 0.00 | 0.00 | 31 | 1007.8 |
| 20260504213603 | 86 | 181 | 0.9 | 10.4 | 0.00 | 0.00 | 0.00 | 27 | 1007.8 |
| 20260504213003 | 86 | 201 | 0.0 | 7.0 | 0.00 | 0.00 | 0.00 | 29 | 1008.0 |
| 20260504212403 | 86 | 208 | 0.0 | 6.1 | 0.00 | 0.00 | 0.00 | 29 | 1007.9 |
| 20260504211803 | 86 | 191 | 0.0 | 6.1 | 0.00 | 0.00 | 0.00 | 26 | 1008.0 |
| 20260504211203 | 86 | 193 | 0.9 | 9.6 | 0.00 | 0.00 | 0.00 | 28 | 1008.0 |
| 20260504210603 | 86 | 217 | 0.9 | 12.2 | 0.00 | 0.00 | 0.00 | 26 | 1008.0 |
| 20260504210004 | 86 | 259 | 0.9 | 12.2 | 0.00 | 0.00 | 0.00 | 28 | 1008.1 |
| 20260504205403 | 86 | 214 | 1.7 | 13.0 | 0.00 | 0.00 | 0.00 | 28 | 1008.2 |
| 20260504204803 | 85 | 177 | 0.9 | 13.0 | 0.00 | 0.00 | 0.00 | 26 | 1008.1 |
| 20260504204203 | 86 | 178 | 0.9 | 12.2 | 0.00 | 0.00 | 0.00 | 27 | 1008.2 |
| 20260504203603 | 86 | 167 | 0.9 | 7.8 | 0.00 | 0.00 | 0.00 | 30 | 1008.3 |
| 20260504203003 | 86 | 166 | 0.9 | 10.4 | 0.00 | 0.00 | 0.00 | 26 | 1008.4 |
| 20260504202403 | 86 | 203 | 0.0 | 10.4 | 0.00 | 0.00 | 0.00 | 28 | 1008.5 |
| 20260504201803 | 86 | 192 | 0.0 | 7.0 | 0.00 | 0.00 | 0.00 | 29 | 1008.4 |
| 20260504201203 | 86 | 187 | 0.9 | 7.8 | 0.00 | 0.00 | 0.00 | 28 | 1008.5 |
| 20260504200603 | 86 | 181 | 0.9 | 7.8 | 0.00 | 0.00 | 0.00 | 30 | 1008.5 |
| 20260504200003 | 86 | 185 | 0.9 | 7.0 | 0.00 | 0.00 | 0.00 | 25 | 1008.6 |
| 20260504195403 | 86 | 175 | 0.0 | 7.8 | 0.00 | 0.00 | 0.00 | 28 | 1008.7 |
| 20260504194803 | 86 | 173 | 0.9 | 9.6 | 0.00 | 0.00 | 0.00 | 30 | 1008.7 |
| 20260504194203 | 85 | 172 | 0.0 | 9.6 | 0.00 | 0.00 | 0.00 | 28 | 1008.7 |
| 20260504193603 | 85 | 192 | 0.9 | 7.0 | 0.00 | 0.00 | 0.00 | 32 | 1008.7 |
| 20260504193003 | 84 | 190 | 1.7 | 13.9 | 0.00 | 0.00 | 0.00 | 29 | 1008.8 |
| 20260504192403 | 84 | 200 | 0.9 | 13.9 | 0.00 | 0.00 | 0.00 | 28 | 1008.9 |
| 20260504191804 | 83 | 0 | 0.0 | 0.0 | 0.00 | 0.00 | 0.00 | 28 | 1009.0 |
| 20260504191203 | 83 | 0 | 0.0 | 0.0 | 0.00 | 0.00 | 0.00 | 32 | 1009.0 |
| 20260504190603 | 82 | 0 | 0.0 | 0.0 | 0.00 | 0.00 | 0.00 | 32 | 1009.0 |
| 20260504190003 | 81 | 0 | 0.0 | 0.0 | 0.00 | 0.00 | 0.00 | 37 | 1009.1 |
| 20260504185403 | 80 | 0 | 0.0 | 0.0 | 0.00 | 0.00 | 0.00 | 38 | 1009.3 |
| 20260504184803 | 80 | 0 | 0.0 | 0.0 | 0.00 | 0.00 | 0.00 | 43 | 1009.3 |
| 20260504184203 | 79 | 0 | 0.0 | 0.0 | 0.00 | 0.00 | 0.00 | 36 | 1009.3 |
| 20260504183603 | 78 | 0 | 0.0 | 0.0 | 0.00 | 0.00 | 0.00 | 45 | 1009.4 |
| 20260504183003 | 78 | 0 | 0.0 | 0.0 | 0.00 | 0.00 | 0.00 | 37 | 1009.4 |
| 20260504182403 | 78 | 0 | 0.0 | 0.0 | 0.00 | 0.00 | 0.00 | 45 | 1009.5 |
| 20260504181803 | 77 | 0 | 0.0 | 0.0 | 0.00 | 0.00 | 0.00 | 42 | 1009.6 |
| 20260504181203 | 77 | 0 | 0.0 | 0.0 | 0.00 | 0.00 | 0.00 | 42 | 1009.5 |
| 20260504180603 | 76 | 0 | 0.0 | 0.0 | 0.00 | 0.00 | 0.00 | 44 | 1009.6 |
| 20260504180004 | 75 | 0 | 0.0 | 0.0 | 0.00 | 0.00 | 0.00 | 45 | 1009.6 |
| 20260504175404 | 74 | 0 | 0.0 | 0.0 | 0.00 | 0.00 | 0.00 | 46 | 1009.7 |
| 20260504174803 | 74 | 0 | 0.0 | 0.0 | 0.00 | 0.00 | 0.00 | 41 | 1009.7 |
| 20260504174203 | 73 | 0 | 0.0 | 0.0 | 0.00 | 0.00 | 0.00 | 43 | 1009.7 |
| 20260504173603 | 72 | 0 | 0.0 | 0.0 | 0.00 | 0.00 | 0.00 | 42 | 1009.8 |
| 20260504173003 | 71 | 0 | 0.0 | 0.0 | 0.00 | 0.00 | 0.00 | 43 | 1009.8 |
| 20260504172403 | 70 | 0 | 0.0 | 0.0 | 0.00 | 0.00 | 0.00 | 46 | 1009.9 |
| 20260504171803 | 69 | 0 | 0.0 | 0.0 | 0.00 | 0.00 | 0.00 | 51 | 1009.8 |
| 20260504171203 | 68 | 0 | 0.0 | 0.0 | 0.00 | 0.00 | 0.00 | 48 | 1009.9 |
| 20260504170603 | 68 | 0 | 0.0 | 0.0 | 0.00 | 0.00 | 0.00 | 48 | 1009.9 |
| 20260504150603 | 48 | 0 | 0.0 | 0.0 | 0.00 | 0.00 | 0.00 | 74 | 1010.8 |
| 20260504141203 | 43 | 0 | 0.0 | 0.0 | 0.00 | 0.00 | 0.00 | 72 | 1011.0 |
| 20260504140603 | 43 | 0 | 0.0 | 0.0 | 0.00 | 0.00 | 0.00 | 72 | 1010.9 |
| 20260504130603 | 42 | 86 | 3.5 | 6.1 | 0.00 | 0.00 | 0.00 | 75 | 1010.5 |
| 20260504110603 | 43 | 69 | 0.0 | 3.5 | 0.00 | 0.00 | 0.00 | 81 | 1010.6 |